createdAt,value
2017-11-23T00:01:41.697Z,6.80
2017-11-23T00:04:09.461Z,6.90
2017-11-23T00:06:37.221Z,6.90
2017-11-23T00:09:05.289Z,6.80
2017-11-23T00:11:33.053Z,6.60
2017-11-23T00:14:00.817Z,6.70
2017-11-23T00:16:28.894Z,6.80
2017-11-23T00:18:56.955Z,7.00
2017-11-23T00:21:24.680Z,6.60
2017-11-23T00:23:52.479Z,6.70
2017-11-23T00:26:20.551Z,6.80
2017-11-23T00:28:48.315Z,6.80
2017-11-23T00:31:16.018Z,6.60
2017-11-23T00:33:44.766Z,6.80
2017-11-23T00:36:12.523Z,6.60
2017-11-23T00:38:40.593Z,6.70
2017-11-23T00:41:08.255Z,6.80
2017-11-23T00:43:36.120Z,7.10
2017-11-23T00:46:03.883Z,7.10
2017-11-23T00:48:31.653Z,7.10
2017-11-23T00:50:59.719Z,7.00
2017-11-23T00:53:27.785Z,6.70
2017-11-23T00:55:55.548Z,6.90
2017-11-23T00:58:23.314Z,7.10
2017-11-23T01:00:50.966Z,7.00
2017-11-23T01:03:18.571Z,6.70
2017-11-23T01:05:46.244Z,7.00
2017-11-23T01:08:13.859Z,6.70
2017-11-23T01:10:41.495Z,7.10
2017-11-23T01:13:09.185Z,7.20
2017-11-23T01:15:36.951Z,6.90
2017-11-23T01:18:04.622Z,7.10
2017-11-23T01:20:32.282Z,7.00
2017-11-23T01:22:59.934Z,6.70
2017-11-23T01:25:27.691Z,7.00
2017-11-23T01:27:55.294Z,6.70
2017-11-23T01:30:24.000Z,6.80
2017-11-23T01:32:51.679Z,6.60
2017-11-23T01:35:19.586Z,6.70
2017-11-23T01:37:47.424Z,6.90
2017-11-23T01:40:15.184Z,7.10
2017-11-23T01:42:42.951Z,7.00
2017-11-23T01:45:10.622Z,6.70
2017-11-23T01:47:38.928Z,6.80
2017-11-23T01:50:06.586Z,7.20
2017-11-23T01:52:34.986Z,6.80
2017-11-23T01:55:02.647Z,6.80
2017-11-23T01:57:30.370Z,6.90
2017-11-23T01:59:58.071Z,6.80
2017-11-23T02:02:25.731Z,6.60
2017-11-23T02:04:53.399Z,6.70
2017-11-23T02:07:21.045Z,6.80
2017-11-23T02:09:49.046Z,6.60
2017-11-23T02:12:16.809Z,6.70
2017-11-23T02:14:44.572Z,6.80
2017-11-23T02:17:12.286Z,6.90
2017-11-23T02:19:40.092Z,6.80
2017-11-23T02:22:07.773Z,6.60
2017-11-23T02:24:35.512Z,6.70
2017-11-23T02:27:03.192Z,6.70
2017-11-23T02:29:30.923Z,6.50
2017-11-23T02:31:58.582Z,6.60
2017-11-23T02:34:26.319Z,6.40
2017-11-23T02:36:55.057Z,6.50
2017-11-23T02:39:22.771Z,6.60
2017-11-23T02:41:51.191Z,6.50
2017-11-23T02:44:18.887Z,6.50
2017-11-23T02:46:47.294Z,6.80
2017-11-23T02:49:15.759Z,6.80
2017-11-23T02:51:45.299Z,6.70
2017-11-23T02:54:12.955Z,6.50
2017-11-23T02:56:40.619Z,6.90
2017-11-23T02:59:08.334Z,6.80
2017-11-23T03:01:35.970Z,6.30
2017-11-23T03:04:03.664Z,6.50
2017-11-23T03:06:31.280Z,6.30
2017-11-23T03:08:58.939Z,6.80
2017-11-23T03:11:26.602Z,6.70
2017-11-23T03:13:54.263Z,6.70
2017-11-23T03:16:21.866Z,6.70
2017-11-23T03:18:49.696Z,6.70
2017-11-23T03:21:17.544Z,6.70
2017-11-23T03:23:45.531Z,6.30
2017-11-23T03:26:13.150Z,6.80
2017-11-23T03:28:40.802Z,6.50
2017-11-23T03:31:08.452Z,6.60
2017-11-23T03:33:36.112Z,6.60
2017-11-23T03:36:03.822Z,6.70
2017-11-23T03:38:31.486Z,6.80
2017-11-23T03:40:59.221Z,6.60
2017-11-23T03:43:26.923Z,6.70
2017-11-23T03:45:54.639Z,6.30
2017-11-23T03:48:22.311Z,6.70
2017-11-23T03:50:50.003Z,6.20
2017-11-23T03:53:17.627Z,6.30
2017-11-23T03:55:45.329Z,6.70
2017-11-23T03:58:12.951Z,6.70
2017-11-23T04:00:40.663Z,6.80
2017-11-23T04:03:08.351Z,6.40
2017-11-23T04:05:36.045Z,6.70
2017-11-23T04:08:03.736Z,6.70
2017-11-23T04:10:31.353Z,6.70
2017-11-23T04:12:58.979Z,6.60
2017-11-23T04:15:27.624Z,6.50
2017-11-23T04:17:55.235Z,6.60
2017-11-23T04:20:24.418Z,6.50
2017-11-23T04:22:52.138Z,6.50
2017-11-23T04:25:19.802Z,6.60
2017-11-23T04:27:48.405Z,6.70
2017-11-23T04:30:16.082Z,6.70
2017-11-23T04:32:44.464Z,6.60
2017-11-23T04:35:13.196Z,6.60
2017-11-23T04:37:41.174Z,6.60
2017-11-23T04:40:08.944Z,6.70
2017-11-23T04:42:36.620Z,6.80
2017-11-23T04:45:04.282Z,6.90
2017-11-23T04:47:32.721Z,6.90
2017-11-23T04:50:00.386Z,6.50
2017-11-23T04:52:27.998Z,6.90
2017-11-23T04:54:55.819Z,6.80
2017-11-23T04:57:23.435Z,7.00
2017-11-23T04:59:51.127Z,6.70
2017-11-23T05:02:18.894Z,6.80
2017-11-23T05:04:46.510Z,6.90
2017-11-23T05:07:14.163Z,7.10
2017-11-23T05:09:42.098Z,7.10
2017-11-23T05:12:09.754Z,7.20
2017-11-23T05:14:37.453Z,6.90
2017-11-23T05:17:05.056Z,7.00
2017-11-23T05:19:32.845Z,7.10
2017-11-23T05:22:00.499Z,7.20
2017-11-23T05:24:29.102Z,7.30
2017-11-23T05:26:57.613Z,7.10
2017-11-23T05:29:25.554Z,7.00
2017-11-23T05:31:54.021Z,7.20
2017-11-23T05:34:21.680Z,7.10
2017-11-23T05:36:51.035Z,7.10
2017-11-23T05:39:18.650Z,7.10
2017-11-23T05:41:48.934Z,7.30
2017-11-23T05:44:17.787Z,7.30
2017-11-23T05:46:47.158Z,7.30
2017-11-23T05:49:14.994Z,7.10
2017-11-23T05:51:44.228Z,7.30
2017-11-23T05:54:14.327Z,7.30
2017-11-23T05:56:43.475Z,7.30
2017-11-23T05:59:12.000Z,7.60
2017-11-23T06:01:41.142Z,7.40
2017-11-23T06:04:08.936Z,7.50
2017-11-23T06:06:36.551Z,7.40
2017-11-23T06:09:04.463Z,7.60
2017-11-23T06:11:33.454Z,7.40
2017-11-23T06:14:02.355Z,7.50
2017-11-23T06:16:30.115Z,7.50
2017-11-23T06:18:57.723Z,7.70
2017-11-23T06:21:26.475Z,7.50
2017-11-23T06:23:56.249Z,7.40
2017-11-23T06:26:25.074Z,7.50
2017-11-23T06:28:52.694Z,7.60
2017-11-23T06:31:20.383Z,7.50
2017-11-23T06:33:48.042Z,7.70
2017-11-23T06:36:17.502Z,7.50
2017-11-23T06:38:46.862Z,7.40
2017-11-23T06:41:16.341Z,7.50
2017-11-23T06:43:44.383Z,7.90
2017-11-23T06:46:11.986Z,7.40
2017-11-23T06:48:39.599Z,7.40
2017-11-23T06:51:07.636Z,7.50
2017-11-23T06:53:38.458Z,7.60
2017-11-23T06:56:07.829Z,7.40
2017-11-23T06:58:35.801Z,7.50
2017-11-23T07:01:03.491Z,7.30
2017-11-23T07:03:31.219Z,7.40
2017-11-23T07:05:59.547Z,7.50
2017-11-23T07:08:27.971Z,7.50
2017-11-23T07:10:55.596Z,7.30
2017-11-23T07:13:23.896Z,7.40
2017-11-23T07:15:54.650Z,7.50
2017-11-23T07:18:23.646Z,7.30
2017-11-23T07:20:51.706Z,7.60
2017-11-23T07:23:19.322Z,7.50
2017-11-23T07:25:46.935Z,7.40
2017-11-23T07:28:19.571Z,7.50
2017-11-23T07:30:47.275Z,7.40
2017-11-23T07:33:14.879Z,7.90
2017-11-23T07:35:42.555Z,7.90
2017-11-23T07:38:10.163Z,7.90
2017-11-23T07:40:37.807Z,7.80
2017-11-23T07:43:05.423Z,7.70
2017-11-23T07:45:33.074Z,7.80
2017-11-23T07:48:00.681Z,7.90
2017-11-23T07:50:28.342Z,7.90
2017-11-23T07:52:55.951Z,7.80
2017-11-23T07:55:24.335Z,8.00
2017-11-23T07:57:52.002Z,7.90
2017-11-23T08:00:19.620Z,8.10
2017-11-23T08:02:47.332Z,8.10
2017-11-23T08:05:14.942Z,8.20
2017-11-23T08:07:42.550Z,8.20
2017-11-23T08:10:10.338Z,8.20
2017-11-23T08:12:38.016Z,8.20
2017-11-23T08:15:05.715Z,8.20
2017-11-23T08:17:33.384Z,8.30
2017-11-23T08:20:01.084Z,8.70
2017-11-23T08:22:28.842Z,8.30
2017-11-23T08:24:56.502Z,8.70
2017-11-23T08:27:24.287Z,8.80
2017-11-23T08:29:51.941Z,8.50
2017-11-23T08:32:19.603Z,8.50
2017-11-23T08:34:47.255Z,8.70
2017-11-23T08:37:14.872Z,9.00
2017-11-23T08:39:42.485Z,9.20
2017-11-23T08:42:10.210Z,9.30
2017-11-23T08:44:37.869Z,9.20
2017-11-23T08:47:05.772Z,9.00
2017-11-23T08:49:33.439Z,9.10
2017-11-23T08:52:01.055Z,9.30
2017-11-23T08:54:34.287Z,9.40
2017-11-23T08:57:01.896Z,9.60
2017-11-23T08:59:29.551Z,9.70
2017-11-23T09:01:59.078Z,9.50
2017-11-23T09:04:26.727Z,9.60
2017-11-23T09:06:54.334Z,9.60
2017-11-23T09:09:22.591Z,9.80
2017-11-23T09:11:50.254Z,9.60
2017-11-23T09:14:18.833Z,9.70
2017-11-23T09:16:46.499Z,9.70
2017-11-23T09:19:14.112Z,9.50
2017-11-23T09:21:41.722Z,9.80
2017-11-23T09:24:09.374Z,9.50
2017-11-23T09:26:37.044Z,10.00
2017-11-23T09:29:04.699Z,9.80
2017-11-23T09:31:32.412Z,9.80
2017-11-23T09:34:00.044Z,9.90
2017-11-23T09:36:27.688Z,9.90
2017-11-23T09:38:55.944Z,10.10
2017-11-23T09:41:23.573Z,9.70
2017-11-23T09:43:51.880Z,9.80
2017-11-23T09:46:19.540Z,9.80
2017-11-23T09:48:47.188Z,10.10
2017-11-23T09:51:14.918Z,10.00
2017-11-23T09:53:42.569Z,10.00
2017-11-23T09:56:10.238Z,10.20
2017-11-23T09:58:38.677Z,10.50
2017-11-23T10:01:06.642Z,10.40
2017-11-23T10:03:34.404Z,10.40
2017-11-23T10:06:02.491Z,10.30
2017-11-23T10:08:30.147Z,10.30
2017-11-23T10:10:57.754Z,10.40
2017-11-23T10:13:25.419Z,10.60
2017-11-23T10:15:53.031Z,10.40
2017-11-23T10:18:20.687Z,10.50
2017-11-23T10:20:48.346Z,10.40
2017-11-23T10:23:15.958Z,10.50
2017-11-23T10:25:43.584Z,10.40
2017-11-23T10:28:11.283Z,10.70
2017-11-23T10:30:38.947Z,10.80
2017-11-23T10:33:06.571Z,10.70
2017-11-23T10:35:34.234Z,10.70
2017-11-23T10:38:01.895Z,10.90
2017-11-23T10:40:31.327Z,11.20
2017-11-23T10:42:58.990Z,11.30
2017-11-23T10:45:26.766Z,11.40
2017-11-23T10:47:54.444Z,11.30
2017-11-23T10:50:22.134Z,11.50
2017-11-23T10:52:49.831Z,11.90
2017-11-23T10:55:17.488Z,12.10
2017-11-23T10:57:45.119Z,11.60
2017-11-23T11:00:12.808Z,12.00
2017-11-23T11:02:41.180Z,12.10
2017-11-23T11:05:09.483Z,12.40
2017-11-23T11:07:37.548Z,12.20
2017-11-23T11:10:05.167Z,12.40
2017-11-23T11:12:32.783Z,12.10
2017-11-23T11:15:00.750Z,12.40
2017-11-23T11:17:28.375Z,12.40
2017-11-23T11:19:56.041Z,12.50
2017-11-23T11:22:24.995Z,12.90
2017-11-23T11:24:53.680Z,12.90
2017-11-23T11:27:22.330Z,12.90
2017-11-23T11:29:50.007Z,12.60
2017-11-23T11:32:17.683Z,12.90
2017-11-23T11:34:45.311Z,12.90
2017-11-23T11:37:12.928Z,12.90
2017-11-23T11:39:40.607Z,12.90
2017-11-23T11:42:08.227Z,12.70
2017-11-23T11:44:35.877Z,13.20
2017-11-23T11:47:03.495Z,13.20
2017-11-23T11:49:31.199Z,13.20
2017-11-23T11:51:58.838Z,13.20
2017-11-23T11:54:26.523Z,13.30
2017-11-23T11:56:54.907Z,13.20
2017-11-23T11:59:23.326Z,13.30
2017-11-23T12:01:51.010Z,13.20
2017-11-23T12:04:18.656Z,13.30
2017-11-23T12:06:46.919Z,13.20
2017-11-23T12:09:14.536Z,13.30
2017-11-23T12:11:42.199Z,13.20
2017-11-23T12:14:21.606Z,13.30
2017-11-23T12:17:02.169Z,13.30
2017-11-23T12:19:41.650Z,13.00
2017-11-23T12:22:21.121Z,13.30
2017-11-23T12:25:00.478Z,13.20
2017-11-23T12:27:33.790Z,13.30
2017-11-23T12:30:12.109Z,13.40
2017-11-23T12:32:40.539Z,13.10
2017-11-23T12:35:08.421Z,13.10
2017-11-23T12:37:36.258Z,13.40
2017-11-23T12:40:03.949Z,13.10
2017-11-23T12:42:31.614Z,13.20
2017-11-23T12:44:59.227Z,13.20
2017-11-23T12:47:26.836Z,13.10
2017-11-23T12:49:54.526Z,13.30
2017-11-23T12:52:22.152Z,13.20
2017-11-23T12:54:49.998Z,13.40
2017-11-23T12:57:17.997Z,13.30
2017-11-23T12:59:45.610Z,13.30
2017-11-23T13:02:13.269Z,13.30
2017-11-23T13:04:40.878Z,13.40
2017-11-23T13:07:08.543Z,13.20
2017-11-23T13:09:36.218Z,13.30
2017-11-23T13:12:04.658Z,12.90
2017-11-23T13:14:32.283Z,13.00
2017-11-23T13:16:59.889Z,12.60
2017-11-23T13:19:27.550Z,12.90
2017-11-23T13:21:55.163Z,12.90
2017-11-23T13:24:23.152Z,13.20
2017-11-23T13:26:50.842Z,12.90
2017-11-23T13:29:18.677Z,12.90
2017-11-23T13:31:46.746Z,12.90
2017-11-23T13:34:14.511Z,12.90
2017-11-23T13:36:42.276Z,13.30
2017-11-23T13:39:09.967Z,13.30
2017-11-23T13:41:37.582Z,13.30
2017-11-23T13:44:05.240Z,13.30
2017-11-23T13:46:33.015Z,13.10
2017-11-23T13:49:00.678Z,13.40
2017-11-23T13:51:28.545Z,13.20
2017-11-23T13:53:56.876Z,13.30
2017-11-23T13:56:24.542Z,13.60
2017-11-23T13:58:52.209Z,13.70
2017-11-23T14:01:19.876Z,13.40
2017-11-23T14:03:47.534Z,13.70
2017-11-23T14:06:15.186Z,13.60
2017-11-23T14:08:42.803Z,13.50
2017-11-23T14:11:10.474Z,13.80
2017-11-23T14:13:38.087Z,13.60
2017-11-23T14:16:05.754Z,13.20
2017-11-23T14:18:33.417Z,13.80
2017-11-23T14:21:01.038Z,13.70
2017-11-23T14:23:28.715Z,13.30
2017-11-23T14:25:57.134Z,13.20
2017-11-23T14:28:24.792Z,13.10
2017-11-23T14:30:52.452Z,13.40
2017-11-23T14:33:21.043Z,13.30
2017-11-23T14:35:48.698Z,13.10
2017-11-23T14:38:16.591Z,13.40
2017-11-23T14:40:45.027Z,13.20
2017-11-23T14:43:12.707Z,13.10
2017-11-23T14:45:41.211Z,13.30
2017-11-23T14:48:08.928Z,13.30
2017-11-23T14:50:36.558Z,13.10
2017-11-23T14:53:04.252Z,13.20
2017-11-23T14:55:31.878Z,13.20
2017-11-23T14:57:59.592Z,13.20
2017-11-23T15:00:27.254Z,13.00
2017-11-23T15:02:56.442Z,13.00
2017-11-23T15:05:24.099Z,13.00
2017-11-23T15:07:51.712Z,13.30
2017-11-23T15:10:19.370Z,12.90
2017-11-23T15:12:47.083Z,12.70
2017-11-23T15:15:14.762Z,13.10
2017-11-23T15:17:44.214Z,13.10
2017-11-23T15:20:11.911Z,12.50
2017-11-23T15:22:39.758Z,12.90
2017-11-23T15:25:07.440Z,12.90
2017-11-23T15:27:35.104Z,12.90
2017-11-23T15:30:02.791Z,12.80
2017-11-23T15:32:30.724Z,12.20
2017-11-23T15:34:58.334Z,12.80
2017-11-23T15:37:25.953Z,12.30
2017-11-23T15:39:53.609Z,12.20
2017-11-23T15:42:21.224Z,12.70
2017-11-23T15:44:48.921Z,12.50
2017-11-23T15:47:16.599Z,12.50
2017-11-23T15:49:44.207Z,12.80
2017-11-23T15:52:11.899Z,12.50
2017-11-23T15:54:39.794Z,12.80
2017-11-23T15:57:07.407Z,12.60
2017-11-23T15:59:35.022Z,12.50
2017-11-23T16:02:03.461Z,12.60
2017-11-23T16:04:31.123Z,12.70
2017-11-23T16:06:58.873Z,12.80
2017-11-23T16:09:26.486Z,12.60
2017-11-23T16:11:54.862Z,12.50
2017-11-23T16:14:22.523Z,12.70
2017-11-23T16:16:50.669Z,12.70
2017-11-23T16:19:18.613Z,12.20
2017-11-23T16:21:46.275Z,12.80
2017-11-23T16:24:13.887Z,12.60
2017-11-23T16:26:41.926Z,12.50
2017-11-23T16:29:09.578Z,12.40
2017-11-23T16:31:37.223Z,12.50
2017-11-23T16:34:05.798Z,12.50
2017-11-23T16:36:34.793Z,12.40
2017-11-23T16:39:02.788Z,12.40
2017-11-23T16:41:34.318Z,12.40
2017-11-23T16:47:06.220Z,12.00
2017-11-23T16:49:39.418Z,12.10
2017-11-23T16:52:09.020Z,11.60
2017-11-23T16:54:48.407Z,11.70
2017-11-23T16:57:17.958Z,11.80
2017-11-23T17:00:05.375Z,11.60
2017-11-23T17:02:38.741Z,11.60
2017-11-23T17:05:12.834Z,11.90
2017-11-23T17:07:46.167Z,11.50
2017-11-23T17:10:19.322Z,11.30
2017-11-23T17:12:52.500Z,11.90
2017-11-23T17:15:21.651Z,11.70
2017-11-23T17:17:55.015Z,11.60
2017-11-23T17:20:23.724Z,11.60
2017-11-23T17:22:53.010Z,11.60
2017-11-23T17:25:20.674Z,11.70
2017-11-23T17:27:48.316Z,11.70
2017-11-23T17:30:15.929Z,11.60
2017-11-23T17:32:43.590Z,11.70
2017-11-23T17:35:11.199Z,11.30
2017-11-23T17:37:38.853Z,11.20
2017-11-23T17:40:06.517Z,11.20
2017-11-23T17:42:34.518Z,11.20
2017-11-23T17:45:02.159Z,11.30
2017-11-23T17:47:29.783Z,11.20
2017-11-23T17:49:57.442Z,11.20
2017-11-23T17:52:25.096Z,11.30
2017-11-23T17:54:53.994Z,11.10
2017-11-23T17:57:21.913Z,11.40
2017-11-23T17:59:49.595Z,11.20
2017-11-23T18:02:19.392Z,10.90
2017-11-23T18:04:47.835Z,10.40
2017-11-23T18:07:15.442Z,10.30
2017-11-23T18:09:43.271Z,10.60
2017-11-23T18:12:11.035Z,10.30
2017-11-23T18:14:38.692Z,9.90
2017-11-23T18:17:06.394Z,10.10
2017-11-23T18:19:34.214Z,9.80
2017-11-23T18:22:01.831Z,9.40
2017-11-23T18:24:29.627Z,9.40
2017-11-23T18:26:57.303Z,9.40
2017-11-23T18:29:24.950Z,9.40
2017-11-23T18:31:52.599Z,9.70
2017-11-23T18:34:20.372Z,9.40
2017-11-23T18:36:47.990Z,9.30
2017-11-23T18:39:15.650Z,9.20
2017-11-23T18:41:44.035Z,9.00
2017-11-23T18:44:11.707Z,8.90
2017-11-23T18:46:39.507Z,8.90
2017-11-23T18:49:07.665Z,9.00
2017-11-23T18:51:35.283Z,9.20
2017-11-23T18:54:02.886Z,9.10
2017-11-23T18:56:30.648Z,8.90
2017-11-23T18:58:58.264Z,8.80
2017-11-23T19:01:25.919Z,9.00
2017-11-23T19:03:53.525Z,8.60
2017-11-23T19:06:22.107Z,8.60
2017-11-23T19:08:49.760Z,8.80
2017-11-23T19:11:17.387Z,8.50
2017-11-23T19:13:45.039Z,8.60
2017-11-23T19:16:12.690Z,8.20
2017-11-23T19:18:40.294Z,8.50
2017-11-23T19:21:07.907Z,8.30
2017-11-23T19:23:36.114Z,8.40
2017-11-23T19:26:03.721Z,8.20
2017-11-23T19:28:31.335Z,8.50
2017-11-23T19:30:58.991Z,8.60
2017-11-23T19:33:26.794Z,8.20
2017-11-23T19:35:54.419Z,8.20
2017-11-23T19:38:22.077Z,8.20
2017-11-23T19:40:50.509Z,8.20
2017-11-23T19:43:18.154Z,8.70
2017-11-23T19:45:45.806Z,8.20
2017-11-23T19:48:13.698Z,8.40
2017-11-23T19:50:41.375Z,8.30
2017-11-23T19:53:09.910Z,8.40
2017-11-23T19:55:37.517Z,8.20
2017-11-23T19:58:05.358Z,8.20
2017-11-23T20:00:33.030Z,8.30
2017-11-23T20:03:00.866Z,8.20
2017-11-23T20:05:28.724Z,8.30
2017-11-23T20:07:56.346Z,8.10
2017-11-23T20:10:23.960Z,8.20
2017-11-23T20:12:51.617Z,8.20
2017-11-23T20:15:19.267Z,8.20
2017-11-23T20:17:46.886Z,8.20
2017-11-23T20:20:14.685Z,8.20
2017-11-23T20:22:42.302Z,8.30
2017-11-23T20:25:10.113Z,8.20
2017-11-23T20:27:37.723Z,7.80
2017-11-23T20:30:05.333Z,7.80
2017-11-23T20:32:32.995Z,8.30
2017-11-23T20:35:00.649Z,8.10
2017-11-23T20:37:31.001Z,8.30
2017-11-23T20:39:58.609Z,8.10
2017-11-23T20:42:26.275Z,8.30
2017-11-23T20:44:54.067Z,7.90
2017-11-23T20:47:21.718Z,8.00
2017-11-23T20:49:49.379Z,8.30
2017-11-23T20:52:17.001Z,8.10
2017-11-23T20:54:44.812Z,8.10
2017-11-23T20:57:12.473Z,8.20
2017-11-23T20:59:40.125Z,8.20
2017-11-23T21:02:07.787Z,8.20
2017-11-23T21:04:35.400Z,8.20
2017-11-23T21:07:03.291Z,8.20
2017-11-23T21:09:31.870Z,8.30
2017-11-23T21:11:59.490Z,8.10
2017-11-23T21:14:27.920Z,8.30
2017-11-23T21:16:55.530Z,8.30
2017-11-23T21:19:23.183Z,8.20
2017-11-23T21:21:50.795Z,8.20
2017-11-23T21:24:18.459Z,8.20
2017-11-23T21:26:46.093Z,8.10
2017-11-23T21:29:13.705Z,8.10
2017-11-23T21:31:41.630Z,8.30
2017-11-23T21:34:09.322Z,8.20
2017-11-23T21:36:36.943Z,8.10
2017-11-23T21:39:04.629Z,8.20
2017-11-23T21:41:32.235Z,8.20
2017-11-23T21:43:59.890Z,8.20
2017-11-23T21:46:27.499Z,8.10
2017-11-23T21:48:55.966Z,8.10
2017-11-23T21:51:23.577Z,8.10
2017-11-23T21:53:51.203Z,8.10
2017-11-23T21:56:18.867Z,8.20
2017-11-23T21:58:46.642Z,8.20
2017-11-23T22:01:14.247Z,8.10
2017-11-23T22:03:41.898Z,8.10
2017-11-23T22:06:10.331Z,8.30
2017-11-23T22:08:37.998Z,8.00
2017-11-23T22:11:05.606Z,8.30
2017-11-23T22:13:33.255Z,7.90
2017-11-23T22:16:01.910Z,7.80
2017-11-23T22:18:29.562Z,7.90
2017-11-23T22:20:57.431Z,7.90
2017-11-23T22:23:25.035Z,8.00
2017-11-23T22:25:52.704Z,7.80
2017-11-23T22:28:20.312Z,7.90
2017-11-23T22:30:47.971Z,7.90
2017-11-23T22:33:16.509Z,7.80
2017-11-23T22:35:44.124Z,7.90
2017-11-23T22:38:12.386Z,7.80
2017-11-23T22:40:40.067Z,7.80
2017-11-23T22:43:07.868Z,7.80
2017-11-23T22:45:35.515Z,7.70
2017-11-23T22:48:03.168Z,7.90
2017-11-23T22:50:31.558Z,7.70
2017-11-23T22:52:59.205Z,7.90
2017-11-23T22:55:26.860Z,7.70
2017-11-23T22:57:54.487Z,7.70
2017-11-23T23:00:22.140Z,7.90
2017-11-23T23:02:49.754Z,7.80
2017-11-23T23:05:18.175Z,8.00
2017-11-23T23:07:45.795Z,7.60
2017-11-23T23:10:13.454Z,7.80
2017-11-23T23:12:41.142Z,8.00
2017-11-23T23:15:08.795Z,7.80
2017-11-23T23:17:36.398Z,7.70
2017-11-23T23:20:05.065Z,7.50
2017-11-23T23:22:32.678Z,7.90
2017-11-23T23:25:00.497Z,7.40
2017-11-23T23:27:28.110Z,7.50
2017-11-23T23:29:55.763Z,7.40
2017-11-23T23:32:23.419Z,7.40
2017-11-23T23:34:51.082Z,7.40
2017-11-23T23:37:18.750Z,7.40
2017-11-23T23:39:46.355Z,7.40
2017-11-23T23:42:14.011Z,7.30
2017-11-23T23:44:41.627Z,7.30
2017-11-23T23:47:09.278Z,7.10
2017-11-23T23:49:36.971Z,7.00
2017-11-23T23:52:04.579Z,7.00
2017-11-23T23:54:32.239Z,7.00
2017-11-23T23:56:59.860Z,7.00
2017-11-23T23:59:27.535Z,7.00
